< < Back
Terminal Aerodrome Forecast


Current Version              Previous Versions:   1  2  3  4  5  6  7  8  9  

Terminal Aerodrome Forecast

508
FTUS42 KMLB 241100
TAFMCO
TAF
KMCO 241137Z 2412/2512 36008KT P6SM FEW035 FEW150
     FM241400 04011KT P6SM FEW035 FEW250
     FM250000 01008KT P6SM FEW250=

Latest METAR

584
SAUS70 KWBC 242300 RRE
MTRMCO
METAR KMCO 242253Z 06008KT 10SM FEW046 FEW250 23/13 A2993 RMK AO2 SLP132
T02280133 $


USA.gov is the U.S. government's official web portal to all federal, state and local government web resources and services.